Time;durP1;ratioP1;P1;durP2;ratioP2;P2;SDS_P1;SDS_P2;PMS_P1;PMS_P2;Temp;Humidity;BMP_temperature;BMP_pressure;BME280_temperature;BME280_humidity;BME280_pressure;Samples;Min_cycle;Max_cycle;Signal;HPM_P1;HPM_P2
2022/08/18 00:01:12;;;;;;;8.85;6.70;;;;;;;21.37;86.85;99189.59;1588274;90;21076;-76
2022/08/18 00:03:40;;;;;;;13.15;7.47;;;;;;;21.36;86.93;99192.09;1604439;88;21037;-75
2022/08/18 00:06:09;;;;;;;14.60;7.90;;;;;;;21.29;87.19;99192.05;1589868;90;21068;-78
2022/08/18 00:08:38;;;;;;;10.00;6.75;;;;;;;21.22;87.56;99186.88;1581021;88;21135;-73
2022/08/18 00:11:05;;;;;;;12.47;7.22;;;;;;;21.15;87.96;99196.20;1607007;88;21574;-79
2022/08/18 00:13:34;;;;;;;9.08;7.05;;;;;;;21.15;88.11;99198.34;1599765;88;21014;-79
2022/08/18 00:16:02;;;;;;;17.20;7.42;;;;;;;21.10;88.30;99193.03;1617714;88;21162;-77
2022/08/18 00:18:30;;;;;;;11.63;6.67;;;;;;;20.99;88.78;99193.20;1616130;88;21534;-79
2022/08/18 00:21:01;;;;;;;12.75;8.58;;;;;;;20.96;89.18;99194.43;1607175;88;21141;-79
2022/08/18 00:23:31;;;;;;;8.30;6.50;;;;;;;20.97;89.20;99203.65;1600516;89;20970;-79
2022/08/18 00:25:59;;;;;;;20.08;6.90;;;;;;;21.00;89.07;99198.10;1593448;88;21062;-78
2022/08/18 00:28:26;;;;;;;15.65;7.10;;;;;;;20.94;89.12;99199.41;1608303;88;21529;-78
2022/08/18 00:30:54;;;;;;;11.43;7.83;;;;;;;20.95;89.17;99198.29;1599325;88;21120;-80
2022/08/18 00:33:21;;;;;;;8.10;7.12;;;;;;;20.96;88.98;99202.63;1575601;89;21068;-79
2022/08/18 00:35:49;;;;;;;8.85;6.97;;;;;;;20.92;89.11;99201.66;1598722;89;21584;-79
2022/08/18 00:38:17;;;;;;;13.70;8.75;;;;;;;20.90;89.10;99197.91;1615776;88;21065;-78
2022/08/18 00:40:47;;;;;;;9.03;7.42;;;;;;;20.81;89.54;99195.80;1619600;87;20973;-79
2022/08/18 00:43:45;;;;;;;10.82;7.15;;;;;;;20.75;89.68;99186.97;1619679;88;21058;-78
2022/08/18 00:46:24;;;;;;;11.12;7.45;;;;;;;20.73;90.06;99189.22;1598114;88;21194;-78
2022/08/18 00:48:51;;;;;;;12.68;7.20;;;;;;;20.63;90.51;99188.78;1616856;88;21026;-79
2022/08/18 00:51:28;;;;;;;8.30;7.33;;;;;;;20.62;90.62;99196.77;1610688;87;21604;-79
2022/08/18 00:54:17;;;;;;;13.70;6.85;;;;;;;20.62;90.64;99190.73;1601098;89;20974;-79
2022/08/18 00:56:50;;;;;;;12.37;7.47;;;;;;;20.65;90.47;99194.73;1594074;88;21041;-78
2022/08/18 00:59:43;;;;;;;9.18;7.00;;;;;;;20.63;90.47;99188.78;1613504;88;21180;-80
2022/08/18 01:02:19;;;;;;;11.30;7.75;;;;;;;20.60;90.47;99186.16;1626205;88;21059;-79
2022/08/18 01:04:54;;;;;;;7.28;6.42;;;;;;;20.61;90.41;99183.66;1625064;88;21100;-79
2022/08/18 01:07:30;;;;;;;9.18;7.10;;;;;;;20.65;89.98;99185.97;1600885;89;21124;-80
2022/08/18 01:09:59;;;;;;;7.42;6.30;;;;;;;20.64;89.82;99179.46;1617207;88;21072;-74
2022/08/18 01:12:27;;;;;;;12.40;7.17;;;;;;;20.63;89.61;99184.13;1604056;88;21227;-75
2022/08/18 01:14:53;;;;;;;13.45;6.78;;;;;;;20.61;89.53;99186.96;1618870;88;21022;-75
2022/08/18 01:23:16;;;;;;;10.00;6.22;;;;;;;20.64;89.19;99193.92;1600597;89;21561;-74
2022/08/18 01:26:02;;;;;;;10.85;7.47;;;;;;;20.67;88.80;99193.85;1602080;89;21773;-77
2022/08/18 01:28:33;;;;;;;16.67;9.05;;;;;;;20.63;88.48;99196.42;1600728;88;21013;-74
2022/08/18 01:31:00;;;;;;;6.75;6.05;;;;;;;20.55;88.67;99191.80;1601469;88;21448;-77
2022/08/18 01:33:31;;;;;;;15.75;7.33;;;;;;;20.52;88.78;99199.30;1623731;88;20922;-81
2022/08/18 01:36:16;;;;;;;9.13;7.03;;;;;;;20.51;88.81;99194.95;1614902;85;21314;-88
2022/08/18 01:38:44;;;;;;;13.80;7.22;;;;;;;20.54;88.66;99190.75;1603628;85;20965;-83
2022/08/18 01:41:10;;;;;;;19.52;7.40;;;;;;;20.51;88.50;99191.41;1627888;87;21013;-84
2022/08/18 01:43:37;;;;;;;9.65;6.87;;;;;;;20.51;88.54;99195.52;1629988;87;20958;-87
2022/08/18 01:46:04;;;;;;;13.48;8.20;;;;;;;20.50;88.49;99198.81;1612757;88;20973;-79
2022/08/18 01:48:33;;;;;;;8.35;7.08;;;;;;;20.43;88.73;99200.67;1593435;89;21081;-89
2022/08/18 01:51:04;;;;;;;9.50;6.75;;;;;;;20.36;89.03;99199.58;1603308;89;21070;-87
2022/08/18 01:53:33;;;;;;;10.60;6.23;;;;;;;20.33;89.15;99200.24;1581544;88;21045;-77
2022/08/18 01:56:00;;;;;;;11.80;6.72;;;;;;;20.31;89.22;99200.56;1625035;88;21017;-81
2022/08/18 01:58:27;;;;;;;8.48;6.40;;;;;;;20.32;89.04;99203.53;1621007;88;20997;-83
2022/08/18 02:00:57;;;;;;;7.45;6.75;;;;;;;20.30;89.09;99198.95;1577680;89;21011;-85
2022/08/18 02:03:27;;;;;;;9.80;7.40;;;;;;;20.27;89.05;99211.06;1627826;88;21173;-84
2022/08/18 02:05:59;;;;;;;12.03;6.12;;;;;;;20.19;89.29;99209.94;1628961;87;20942;-84
2022/08/18 02:08:26;;;;;;;11.12;6.08;;;;;;;20.15;89.60;99215.02;1616322;87;21076;-81
2022/08/18 02:10:53;;;;;;;11.60;6.60;;;;;;;20.15;89.43;99210.36;1605061;86;21223;-80
2022/08/18 02:13:19;;;;;;;9.20;7.20;;;;;;;20.17;89.40;99205.95;1628716;84;20953;-82
2022/08/18 02:15:46;;;;;;;6.95;6.25;;;;;;;20.14;89.27;99204.68;1630782;87;21480;-80
2022/08/18 02:18:15;;;;;;;11.93;7.67;;;;;;;20.13;89.19;99205.80;1617009;84;20941;-79
2022/08/18 02:20:42;;;;;;;8.48;6.87;;;;;;;20.19;89.11;99209.17;1612157;84;21041;-82
2022/08/18 02:23:10;;;;;;;12.00;7.22;;;;;;;20.24;88.68;99198.08;1605814;84;21067;-77
2022/08/18 02:25:37;;;;;;;7.90;7.08;;;;;;;20.26;88.29;99203.44;1577301;88;20894;-80
2022/08/18 02:28:04;;;;;;;14.98;6.62;;;;;;;20.28;88.12;99204.48;1604631;87;21129;-77
2022/08/18 02:30:31;;;;;;;13.20;7.42;;;;;;;20.24;87.97;99204.90;1629211;84;21001;-82
2022/08/18 02:32:58;;;;;;;12.53;7.15;;;;;;;20.21;88.09;99210.99;1560470;88;20992;-83
2022/08/18 02:35:27;;;;;;;7.60;6.78;;;;;;;20.20;88.06;99204.73;1606724;86;20958;-81
2022/08/18 02:37:53;;;;;;;14.85;7.03;;;;;;;20.20;88.05;99213.48;1608738;86;21044;-81
2022/08/18 02:40:20;;;;;;;10.63;8.05;;;;;;;20.18;88.07;99208.36;1604857;89;21016;-82
2022/08/18 02:42:48;;;;;;;7.60;6.72;;;;;;;20.17;88.04;99211.41;1577240;89;21467;-83
2022/08/18 02:45:15;;;;;;;15.15;7.45;;;;;;;20.17;87.98;99208.12;1623196;88;20986;-84
2022/08/18 02:47:41;;;;;;;16.30;8.30;;;;;;;20.15;87.99;99210.92;1606223;85;21024;-86
2022/08/18 02:50:09;;;;;;;7.72;6.72;;;;;;;20.11;88.00;99212.14;1602059;86;20969;-86
2022/08/18 02:52:36;;;;;;;12.45;8.53;;;;;;;20.01;88.79;99213.28;1604366;88;21124;-82
2022/08/18 02:55:03;;;;;;;10.98;7.10;;;;;;;19.97;88.86;99212.88;1629345;88;20978;-87
2022/08/18 02:57:30;;;;;;;13.13;7.65;;;;;;;19.96;88.99;99207.17;1582967;89;21008;-81
2022/08/18 02:59:57;;;;;;;7.60;6.83;;;;;;;19.91;89.21;99208.71;1607288;88;20954;-88
2022/08/18 03:02:24;;;;;;;10.50;7.12;;;;;;;19.92;89.31;99213.85;1629820;88;20981;-85
2022/08/18 03:04:50;;;;;;;22.98;15.85;;;;;;;19.92;89.24;99222.05;1628925;88;21240;-85
2022/08/18 03:07:17;;;;;;;13.90;8.88;;;;;;;19.88;89.26;99216.19;1615301;84;20914;-81
2022/08/18 03:09:43;;;;;;;14.15;10.20;;;;;;;19.89;89.42;99213.70;1620123;87;21109;-82
2022/08/18 03:12:10;;;;;;;8.48;7.50;;;;;;;19.84;89.44;99215.23;1605588;87;21202;-84
2022/08/18 03:14:36;;;;;;;10.68;7.45;;;;;;;19.83;89.53;99213.63;1602178;88;20978;-84
2022/08/18 03:17:04;;;;;;;7.17;6.47;;;;;;;19.81;89.56;99217.22;1591302;90;21098;-78
2022/08/18 03:19:34;;;;;;;14.13;7.55;;;;;;;19.83;89.43;99221.81;1577841;84;21109;-83
2022/08/18 03:22:00;;;;;;;19.87;8.00;;;;;;;19.82;89.46;99227.02;1616922;86;21021;-81
2022/08/18 03:24:27;;;;;;;7.72;5.87;;;;;;;19.84;89.26;99228.88;1611493;86;21315;-87
2022/08/18 03:26:55;;;;;;;14.53;8.03;;;;;;;19.84;89.22;99231.61;1592576;90;21001;-83
2022/08/18 03:29:22;;;;;;;8.48;7.10;;;;;;;19.85;89.20;99235.39;1605485;88;21234;-86
2022/08/18 03:31:49;;;;;;;9.50;6.65;;;;;;;19.85;88.96;99236.76;1600026;88;21009;-85
2022/08/18 03:34:22;;;;;;;13.45;7.05;;;;;;;19.86;88.97;99224.69;1593941;87;21014;-85
2022/08/18 03:36:48;;;;;;;9.28;6.83;;;;;;;19.87;88.79;99234.48;1589869;90;21062;-85
2022/08/18 03:39:16;;;;;;;16.80;11.80;;;;;;;19.85;88.63;99232.66;1589510;90;21545;-85
2022/08/18 03:41:44;;;;;;;10.60;8.10;;;;;;;19.82;88.68;99233.28;1589518;90;21142;-77
2022/08/18 03:44:13;;;;;;;9.80;6.50;;;;;;;19.82;88.81;99235.20;1573621;90;21552;-86
2022/08/18 03:46:42;;;;;;;10.80;7.95;;;;;;;19.79;88.63;99229.84;1590457;89;21094;-82
2022/08/18 03:49:09;;;;;;;6.70;5.95;;;;;;;19.79;88.42;99236.67;1591290;89;20974;-87
2022/08/18 03:51:38;;;;;;;8.15;6.10;;;;;;;19.80;88.50;99240.20;1590868;90;21152;-83
2022/08/18 03:54:05;;;;;;;11.43;6.58;;;;;;;19.82;88.41;99237.38;1590953;89;21095;-87
2022/08/18 03:56:37;;;;;;;16.70;7.40;;;;;;;19.89;87.85;99241.80;1574622;90;21323;-87
2022/08/18 03:59:06;;;;;;;8.70;6.83;;;;;;;19.89;87.85;99241.80;1590382;90;21077;-85
2022/08/18 04:01:39;;;;;;;15.18;7.67;;;;;;;19.90;87.72;99240.66;1590250;89;21537;-86
2022/08/18 04:04:13;;;;;;;8.73;6.90;;;;;;;19.89;87.11;99242.36;1593641;88;21549;-83
2022/08/18 04:06:44;;;;;;;6.62;5.92;;;;;;;19.85;87.02;99246.31;1610489;87;21069;-87
2022/08/18 04:09:13;;;;;;;9.93;7.35;;;;;;;19.86;86.78;99246.52;1595286;89;21035;-85
2022/08/18 04:11:42;;;;;;;10.15;7.55;;;;;;;19.90;86.65;99242.02;1598516;89;21057;-85
2022/08/18 04:14:11;;;;;;;10.30;8.60;;;;;;;19.92;86.31;99247.17;1599777;88;21564;-85
2022/08/18 04:16:38;;;;;;;10.50;7.72;;;;;;;19.98;85.94;99249.98;1613385;88;21156;-84
2022/08/18 04:19:05;;;;;;;11.65;6.10;;;;;;;19.99;85.44;99241.48;1574116;89;21531;-84
2022/08/18 04:21:35;;;;;;;11.78;7.50;;;;;;;19.99;85.32;99244.77;1591461;88;20982;-87
2022/08/18 04:24:03;;;;;;;9.50;7.35;;;;;;;20.01;85.34;99245.23;1589531;90;20982;-86
2022/08/18 04:26:34;;;;;;;10.10;7.22;;;;;;;20.01;85.12;99241.13;1590610;89;21146;-84
2022/08/18 04:29:01;;;;;;;13.50;7.58;;;;;;;20.00;85.12;99239.53;1589949;89;21062;-88
2022/08/18 04:31:28;;;;;;;10.08;7.03;;;;;;;20.02;84.83;99235.92;1589780;90;22029;-85
2022/08/18 04:33:57;;;;;;;11.38;6.92;;;;;;;20.03;84.59;99230.15;1591924;89;21066;-86
2022/08/18 04:36:24;;;;;;;7.37;6.67;;;;;;;20.02;84.31;99234.00;1568699;89;20986;-81
2022/08/18 04:38:50;;;;;;;11.33;7.10;;;;;;;20.04;83.84;99235.05;1591649;90;21030;-85
2022/08/18 04:41:17;;;;;;;9.85;6.65;;;;;;;20.04;83.84;99235.05;1591836;87;20922;-85
2022/08/18 04:43:43;;;;;;;8.35;7.53;;;;;;;20.01;83.37;99235.12;1593573;86;21052;-84
2022/08/18 04:46:10;;;;;;;8.35;7.20;;;;;;;20.01;83.20;99239.21;1593025;86;20997;-84
2022/08/18 04:48:39;;;;;;;12.43;7.15;;;;;;;20.05;83.42;99243.45;1592432;89;21078;-85
2022/08/18 04:51:11;;;;;;;9.73;6.92;;;;;;;20.10;83.21;99248.75;1592930;86;20851;-78
2022/08/18 04:53:44;;;;;;;7.80;6.30;;;;;;;20.10;82.87;99246.02;1619580;84;20979;-80
2022/08/18 04:56:26;;;;;;;11.70;7.87;;;;;;;20.13;82.87;99250.86;1624871;84;21059;-83
2022/08/18 04:58:57;;;;;;;15.75;6.83;;;;;;;20.15;82.93;99258.70;1646961;83;20937;-80
2022/08/18 05:01:27;;;;;;;13.20;6.97;;;;;;;20.21;82.71;99256.05;1657678;82;20941;-87
2022/08/18 05:03:56;;;;;;;17.55;7.50;;;;;;;20.30;82.37;99265.03;1609659;85;21038;-83
2022/08/18 05:06:24;;;;;;;11.50;7.87;;;;;;;20.36;82.08;99265.14;1606237;86;20953;-84
2022/08/18 05:08:57;;;;;;;9.85;7.50;;;;;;;20.38;81.91;99260.94;1606044;86;21135;-84
2022/08/18 05:11:27;;;;;;;8.13;7.33;;;;;;;20.44;81.70;99263.74;1612406;85;21020;-85
2022/08/18 05:13:57;;;;;;;12.90;7.95;;;;;;;20.47;81.20;99263.67;1612349;86;21034;-89
2022/08/18 05:16:27;;;;;;;14.38;6.90;;;;;;;20.52;80.79;99264.06;1612430;85;20964;-87
2022/08/18 05:18:53;;;;;;;11.78;7.00;;;;;;;20.55;80.26;99263.40;1605773;84;20959;-87
2022/08/18 05:21:21;;;;;;;9.15;6.87;;;;;;;20.57;80.15;99270.16;1655576;82;21201;-77
2022/08/18 05:23:48;;;;;;;10.82;7.87;;;;;;;20.62;80.10;99269.98;1633239;83;21748;-85
2022/08/18 05:26:17;;;;;;;11.33;7.70;;;;;;;20.64;79.78;99262.25;1630187;86;20954;-81
2022/08/18 05:28:44;;;;;;;10.43;6.72;;;;;;;20.65;79.71;99262.48;1651592;86;21578;-81
2022/08/18 05:31:13;;;;;;;16.12;6.75;;;;;;;20.69;79.83;99262.07;1650992;86;21017;-82
2022/08/18 05:33:40;;;;;;;10.98;5.95;;;;;;;20.77;79.64;99263.16;1650934;86;21120;-82
2022/08/18 05:36:46;;;;;;;10.32;6.20;;;;;;;20.84;79.58;99260.17;1653389;86;20949;-82
2022/08/18 05:39:21;;;;;;;10.68;7.30;;;;;;;20.92;79.03;99263.98;1625096;85;21549;-82
2022/08/18 05:42:05;;;;;;;9.65;7.58;;;;;;;20.95;78.39;99261.17;1639628;86;21595;-81
2022/08/18 05:44:35;;;;;;;8.65;7.35;;;;;;;20.98;78.18;99262.67;1655110;86;21006;-82
2022/08/18 05:47:15;;;;;;;8.20;6.97;;;;;;;21.03;77.82;99257.59;1654841;85;21006;-83
2022/08/18 05:49:46;;;;;;;8.85;7.67;;;;;;;21.07;77.69;99264.00;1683865;85;21072;-82
2022/08/18 05:52:21;;;;;;;16.37;8.08;;;;;;;21.12;77.34;99273.38;1668046;85;21012;-82
2022/08/18 05:58:14;;;;;;;15.88;9.00;;;;;;;21.19;76.83;99262.21;1655420;86;21075;-82
2022/08/18 06:00:47;;;;;;;13.05;7.90;;;;;;;21.23;76.88;99268.62;1663562;85;21488;-83
2022/08/18 06:03:19;;;;;;;14.18;8.25;;;;;;;21.26;76.55;99269.31;1662789;86;21008;-87
2022/08/18 06:06:00;;;;;;;16.02;7.58;;;;;;;21.26;76.86;99265.21;1665054;86;21531;-87
2022/08/18 06:08:40;;;;;;;7.50;6.45;;;;;;;21.31;76.54;99271.05;1665155;84;20954;-89
2022/08/18 06:11:07;;;;;;;10.63;6.62;;;;;;;21.35;76.54;99271.19;1665635;86;21038;-86
2022/08/18 06:13:37;;;;;;;14.40;7.60;;;;;;;21.40;76.45;99275.91;1664473;86;21725;-91
2022/08/18 06:16:37;;;;;;;7.20;6.50;;;;;;;21.45;76.14;99275.72;1664924;86;20935;-83
2022/08/18 06:19:09;;;;;;;9.78;6.87;;;;;;;21.53;75.99;99280.35;1587247;89;20999;-80
2022/08/18 06:21:44;;;;;;;10.32;7.78;;;;;;;21.61;75.69;99287.70;1626960;86;20994;-82
2022/08/18 06:24:37;;;;;;;10.82;6.65;;;;;;;21.66;75.40;99285.33;1661195;86;21011;-84
2022/08/18 06:27:18;;;;;;;9.80;8.10;;;;;;;21.72;75.00;99279.33;1665247;86;21148;-85
2022/08/18 06:30:13;;;;;;;11.00;6.97;;;;;;;21.79;74.03;99281.52;1655296;84;21073;-87
2022/08/18 06:32:58;;;;;;;10.28;6.78;;;;;;;21.86;74.02;99278.26;1676694;84;20999;-91
2022/08/18 06:35:45;;;;;;;11.18;6.78;;;;;;;21.95;73.54;99277.65;1635019;86;21050;-90
2022/08/18 06:38:40;;;;;;;8.25;7.00;;;;;;;22.02;73.56;99280.06;1643500;84;21010;-92
2022/08/18 06:41:15;;;;;;;9.68;6.75;;;;;;;22.09;72.69;99287.19;1665292;86;21142;-90
2022/08/18 06:44:11;;;;;;;14.45;6.58;;;;;;;22.18;72.52;99282.44;1661646;85;20978;-85
2022/08/18 06:47:19;;;;;;;9.83;7.62;;;;;;;22.23;72.53;99282.80;1664023;85;21051;-86
2022/08/18 06:49:57;;;;;;;9.68;7.50;;;;;;;22.24;72.42;99274.81;1635154;86;21064;-89
2022/08/18 06:52:34;;;;;;;16.25;6.47;;;;;;;22.28;72.39;99283.14;1664563;86;21013;-91
2022/08/18 06:55:16;;;;;;;10.13;6.70;;;;;;;22.30;72.31;99276.78;1663128;86;21054;-87
2022/08/18 06:57:56;;;;;;;12.75;8.08;;;;;;;22.36;72.10;99280.88;1635857;86;21037;-89
2022/08/18 07:00:29;;;;;;;12.95;8.00;;;;;;;22.44;71.52;99278.65;1665372;86;21523;-87
2022/08/18 07:03:01;;;;;;;7.37;6.65;;;;;;;22.51;71.31;99278.88;1665343;86;21055;-89
2022/08/18 07:05:31;;;;;;;7.75;6.95;;;;;;;22.59;71.85;99277.97;1674791;84;21027;-94
2022/08/18 07:08:35;;;;;;;14.90;8.23;;;;;;;22.67;71.59;99283.95;1665415;84;21522;-94
2022/08/18 07:11:32;;;;;;;11.73;7.40;;;;;;;22.70;71.07;99281.09;1662500;84;20921;-94
2022/08/18 07:14:16;;;;;;;12.03;7.72;;;;;;;22.70;70.67;99281.92;1662785;84;20956;-88
2022/08/18 07:16:43;;;;;;;8.43;7.62;;;;;;;22.75;70.14;99283.64;1697285;84;21020;-87
2022/08/18 07:19:15;;;;;;;16.32;7.70;;;;;;;22.78;69.39;99279.64;1674962;84;21029;-89
2022/08/18 07:21:45;;;;;;;19.82;14.10;;;;;;;22.83;69.68;99285.50;1661943;86;21252;-90
2022/08/18 07:24:28;;;;;;;8.78;7.28;;;;;;;22.90;69.52;99285.73;1640777;84;21092;-90
2022/08/18 07:27:16;;;;;;;11.55;6.78;;;;;;;22.96;68.77;99288.48;1697052;84;21033;-90
2022/08/18 07:30:17;;;;;;;9.38;6.92;;;;;;;22.99;68.26;99296.82;1687680;84;21554;-90
2022/08/18 07:32:59;;;;;;;7.78;6.70;;;;;;;22.97;67.44;99296.34;1662765;86;21082;-91
2022/08/18 07:35:50;;;;;;;7.15;5.92;;;;;;;23.03;67.93;99291.44;1660477;86;21190;-90
2022/08/18 07:38:27;;;;;;;12.85;7.58;;;;;;;23.11;67.96;99301.53;1664832;82;20940;-83
2022/08/18 07:41:10;;;;;;;10.78;6.65;;;;;;;23.19;68.05;99293.75;1665145;82;20964;-86
2022/08/18 07:43:55;;;;;;;6.60;5.33;;;;;;;23.25;67.67;99297.88;1663549;83;21041;-84
2022/08/18 07:46:39;;;;;;;12.25;6.60;;;;;;;23.31;65.76;99303.34;1696707;84;20989;-87
2022/08/18 07:49:06;;;;;;;7.58;5.65;;;;;;;23.39;65.56;99298.33;1690039;84;21328;-85
2022/08/18 07:51:47;;;;;;;24.82;7.17;;;;;;;23.49;66.08;99298.46;1686119;84;21087;-87
2022/08/18 07:54:44;;;;;;;9.08;6.17;;;;;;;23.58;66.02;99300.50;1608618;87;20984;-88
2022/08/18 07:57:41;;;;;;;11.63;6.00;;;;;;;23.67;65.31;99307.23;1599657;87;21048;-84
2022/08/18 08:00:32;;;;;;;6.87;5.95;;;;;;;23.78;65.45;99311.12;1630662;87;21050;-89
2022/08/18 08:03:26;;;;;;;8.23;5.83;;;;;;;23.87;65.32;99310.41;1615502;88;20920;-90
2022/08/18 08:06:17;;;;;;;9.95;6.62;;;;;;;23.96;64.47;99308.32;1617082;87;21551;-89
2022/08/18 08:09:02;;;;;;;10.08;5.75;;;;;;;24.03;63.14;99309.11;1608919;89;21017;-88
2022/08/18 08:11:57;;;;;;;17.02;7.72;;;;;;;24.07;63.24;99305.31;1615610;87;21071;-94
2022/08/18 08:14:44;;;;;;;11.08;6.08;;;;;;;24.13;63.14;99298.97;1648444;86;21558;-87
2022/08/18 08:17:39;;;;;;;13.00;6.42;;;;;;;24.18;62.94;99305.63;1652995;86;21575;-88
2022/08/18 08:20:34;;;;;;;10.65;5.62;;;;;;;24.24;61.85;99300.12;1655261;84;21167;-89
2022/08/18 08:23:30;;;;;;;7.37;5.83;;;;;;;24.27;61.40;99302.95;1670401;84;21030;-85
2022/08/18 08:26:22;;;;;;;14.53;7.03;;;;;;;24.33;61.58;99295.27;1654862;86;21090;-87
2022/08/18 08:29:29;;;;;;;7.75;6.17;;;;;;;24.41;61.36;99294.91;1632887;87;21081;-87
2022/08/18 08:32:03;;;;;;;12.63;5.50;;;;;;;24.45;60.99;99290.30;1633915;86;21916;-88
2022/08/18 08:34:45;;;;;;;12.43;4.95;;;;;;;24.49;60.57;99291.19;1617050;87;21003;-89
2022/08/18 08:37:28;;;;;;;13.70;6.47;;;;;;;24.55;60.50;99294.72;1668032;86;21137;-86
2022/08/18 08:40:25;;;;;;;17.62;5.60;;;;;;;24.61;60.91;99295.23;1649586;86;21034;-89
2022/08/18 08:43:17;;;;;;;15.08;7.20;;;;;;;24.71;60.78;99285.09;1681707;84;21045;-90
2022/08/18 08:46:07;;;;;;;14.18;6.20;;;;;;;24.79;60.53;99286.89;1644060;86;21313;-93
2022/08/18 08:48:55;;;;;;;7.47;5.47;;;;;;;24.88;59.92;99289.50;1670081;84;21097;-92
2022/08/18 08:51:29;;;;;;;10.35;6.08;;;;;;;24.85;59.19;99288.20;1669952;86;21007;-84
2022/08/18 08:54:24;;;;;;;6.67;5.70;;;;;;;24.90;59.15;99297.60;1685618;84;21045;-85
2022/08/18 08:56:55;;;;;;;9.68;5.97;;;;;;;24.96;59.06;99294.02;1642093;87;21084;-84
2022/08/18 08:59:24;;;;;;;13.50;5.58;;;;;;;25.04;59.11;99296.58;1623446;86;21808;-87
2022/08/18 09:01:56;;;;;;;13.08;5.03;;;;;;;25.11;58.59;99297.34;1633826;86;21008;-93
2022/08/18 09:04:41;;;;;;;11.10;5.63;;;;;;;25.21;58.50;99289.12;1658787;85;21062;-94
2022/08/18 09:07:19;;;;;;;10.23;5.62;;;;;;;25.26;58.48;99302.05;1645570;86;21037;-91
2022/08/18 09:09:58;;;;;;;9.03;5.35;;;;;;;25.32;58.70;99306.70;1604459;85;21033;-86
2022/08/18 09:13:02;;;;;;;6.97;5.15;;;;;;;25.38;57.65;99300.55;1643328;86;21254;-85
2022/08/18 09:15:46;;;;;;;10.60;5.05;;;;;;;25.45;56.71;99308.99;1584300;88;20981;-86
2022/08/18 09:18:40;;;;;;;6.20;5.08;;;;;;;25.53;56.85;99308.57;1590681;88;21133;-88
2022/08/18 09:21:35;;;;;;;16.45;5.83;;;;;;;25.61;57.37;99305.64;1605596;89;21119;-87
2022/08/18 09:24:22;;;;;;;10.32;4.45;;;;;;;25.73;56.05;99310.83;1605641;87;21058;-87
2022/08/18 09:27:17;;;;;;;9.70;4.62;;;;;;;25.85;56.11;99310.11;1659096;86;21070;-82
2022/08/18 09:29:59;;;;;;;13.80;5.97;;;;;;;25.97;54.78;99311.94;1594632;89;21052;-87
2022/08/18 09:32:31;;;;;;;5.00;4.60;;;;;;;26.05;54.33;99314.48;1659096;85;21031;-85
2022/08/18 09:35:32;;;;;;;5.53;4.42;;;;;;;26.08;54.03;99312.17;1657692;85;22658;-87
2022/08/18 09:44:08;;;;;;;7.22;5.53;;;;;;;26.14;52.58;99299.09;1659055;86;21494;-88
2022/08/18 09:46:49;;;;;;;8.65;4.53;;;;;;;26.15;52.38;99293.02;1682384;85;21057;-89
2022/08/18 09:49:28;;;;;;;5.62;4.35;;;;;;;26.18;53.04;99293.11;1683984;85;21080;-89
2022/08/18 09:52:00;;;;;;;10.48;5.83;;;;;;;26.27;53.52;99290.15;1613724;87;21556;-78
2022/08/18 09:54:30;;;;;;;14.05;5.87;;;;;;;26.35;55.00;99287.73;1659514;86;21074;-83
2022/08/18 09:57:16;;;;;;;9.55;5.67;;;;;;;26.43;55.96;99304.62;1665200;85;21063;-83
2022/08/18 09:59:50;;;;;;;6.92;4.62;;;;;;;26.50;55.36;99292.37;1677769;84;21239;-85
2022/08/18 10:02:31;;;;;;;4.95;4.53;;;;;;;26.58;53.74;99298.22;1671005;84;21534;-77
2022/08/18 10:05:22;;;;;;;11.03;5.85;;;;;;;26.66;53.70;99297.22;1683352;84;21584;-74
2022/08/18 10:08:09;;;;;;;14.63;5.22;;;;;;;26.72;52.57;99299.86;1677267;84;21831;-77
2022/08/18 10:10:53;;;;;;;10.28;6.15;;;;;;;26.82;51.76;99308.12;1692886;84;23758;-78
2022/08/18 10:14:06;;;;;;;8.50;5.62;;;;;;;26.86;52.05;99300.15;1654251;86;21070;-77
2022/08/18 10:17:19;;;;;;;9.58;6.42;;;;;;;26.90;53.43;99309.89;1649809;86;21065;-79
2022/08/18 10:19:55;;;;;;;5.53;5.00;;;;;;;26.99;54.72;99304.92;1652810;86;21025;-77
2022/08/18 10:22:43;;;;;;;9.30;5.90;;;;;;;27.15;54.29;99305.56;1627269;86;21257;-85
2022/08/18 10:25:10;;;;;;;9.08;5.33;;;;;;;27.28;53.61;99297.91;1538804;91;21510;-87
2022/08/18 10:27:52;;;;;;;7.90;5.85;;;;;;;27.29;53.57;99294.75;1562093;90;21072;-88
2022/08/18 10:30:39;;;;;;;8.65;5.03;;;;;;;27.35;52.33;99293.85;1610856;87;21039;-88
2022/08/18 10:33:10;;;;;;;14.68;5.72;;;;;;;27.42;52.27;99288.45;1592260;87;21678;-88
2022/08/18 10:35:54;;;;;;;10.23;5.70;;;;;;;27.49;52.61;99291.91;1612414;86;21076;-83
2022/08/18 10:38:42;;;;;;;8.83;5.15;;;;;;;27.55;50.89;99292.62;1582728;90;21054;-84
2022/08/18 10:41:23;;;;;;;8.40;4.95;;;;;;;27.59;49.93;99294.04;1589433;88;21265;-82
2022/08/18 10:43:51;;;;;;;12.93;4.97;;;;;;;27.62;50.14;99283.06;1619111;87;21078;-78
2022/08/18 10:46:26;;;;;;;12.50;6.55;;;;;;;27.68;50.34;99284.31;1589528;90;21105;-83
2022/08/18 10:49:14;;;;;;;6.70;4.35;;;;;;;27.78;50.53;99292.53;1589839;88;21093;-74
2022/08/18 10:51:49;;;;;;;10.15;5.15;;;;;;;27.88;49.46;99297.41;1585812;89;21129;-74
2022/08/18 10:54:35;;;;;;;9.10;5.05;;;;;;;27.98;49.22;99295.95;1623486;86;21580;-76
2022/08/18 10:57:28;;;;;;;10.10;5.42;;;;;;;28.05;49.58;99287.19;1575285;91;21117;-75
2022/08/18 11:00:17;;;;;;;6.17;5.20;;;;;;;28.15;49.89;99300.97;1575498;91;21187;-77
2022/08/18 11:03:15;;;;;;;13.93;5.00;;;;;;;28.22;49.71;99302.42;1576373;90;21174;-75
2022/08/18 11:05:43;;;;;;;6.03;4.92;;;;;;;28.28;50.09;99302.88;1633419;87;21364;-73
2022/08/18 11:08:13;;;;;;;6.97;4.67;;;;;;;28.40;49.64;99304.80;1636878;87;21070;-73
2022/08/18 11:10:49;;;;;;;13.70;5.92;;;;;;;28.47;49.67;99306.86;1631352;87;21524;-76
2022/08/18 11:13:38;;;;;;;13.55;5.53;;;;;;;28.54;49.48;99304.95;1581724;89;21582;-76
2022/08/18 11:16:36;;;;;;;11.33;5.03;;;;;;;28.61;49.51;99293.17;1615442;88;21245;-75
2022/08/18 11:19:11;;;;;;;9.38;5.03;;;;;;;28.66;49.39;99300.33;1599456;88;21061;-78
2022/08/18 11:21:46;;;;;;;12.98;5.22;;;;;;;28.70;49.22;99291.48;1588613;90;21061;-78
2022/08/18 11:24:30;;;;;;;9.28;5.03;;;;;;;28.73;48.93;99296.30;1582250;90;20970;-79
2022/08/18 11:27:03;;;;;;;7.80;4.97;;;;;;;28.77;49.20;99294.36;1587818;89;21558;-76
2022/08/18 11:29:35;;;;;;;7.67;4.10;;;;;;;28.85;47.29;99298.77;1625672;87;21780;-75
2022/08/18 11:32:18;;;;;;;7.53;4.30;;;;;;;28.91;46.61;99291.72;1639128;87;21119;-81
2022/08/18 11:34:50;;;;;;;;;;;;;;;28.96;46.34;99284.45;1580256;90;21098;-79
2022/08/18 11:37:28;;;;;;;11.35;4.40;;;;;;;29.00;46.17;99283.88;1588810;90;20467;-81
2022/08/18 11:39:58;;;;;;;8.23;4.83;;;;;;;29.05;46.61;99287.69;1588471;89;21057;-77
2022/08/18 11:42:32;;;;;;;7.55;4.78;;;;;;;29.14;46.95;99281.81;1614955;88;21074;-79
2022/08/18 11:45:17;;;;;;;9.70;4.40;;;;;;;29.21;47.20;99284.66;1592761;88;21038;-77
2022/08/18 11:48:19;;;;;;;7.95;4.50;;;;;;;29.29;47.28;99282.94;1613249;88;20963;-76
2022/08/18 11:51:04;;;;;;;12.45;5.35;;;;;;;29.32;46.73;99279.41;1616706;88;21092;-74
2022/08/18 11:53:43;;;;;;;16.73;6.35;;;;;;;29.34;46.60;99286.77;1586286;88;21042;-74
2022/08/18 11:56:23;;;;;;;10.98;7.40;;;;;;;29.41;46.82;99281.84;1562013;91;21305;-76
2022/08/18 11:59:01;;;;;;;15.93;5.33;;;;;;;29.48;46.28;99280.52;1565765;90;21012;-76
2022/08/18 12:01:48;;;;;;;5.97;4.58;;;;;;;29.60;45.96;99276.61;1609034;87;21073;-74
2022/08/18 12:04:38;;;;;;;10.80;5.55;;;;;;;29.68;45.71;99273.52;1609188;89;21215;-79
2022/08/18 12:07:15;;;;;;;7.87;4.87;;;;;;;29.73;45.75;99271.77;1587711;89;21646;-79
2022/08/18 12:10:13;;;;;;;6.47;4.65;;;;;;;29.84;45.73;99267.63;1602139;89;21334;-80
2022/08/18 12:12:54;;;;;;;6.08;4.90;;;;;;;29.94;44.88;99273.06;1581258;89;21057;-79
2022/08/18 12:15:29;;;;;;;5.17;4.20;;;;;;;29.96;44.17;99267.93;1544982;91;20992;-79
2022/08/18 12:17:57;;;;;;;5.97;4.42;;;;;;;30.00;43.94;99275.08;1568481;91;21590;-79
2022/08/18 12:20:24;;;;;;;8.13;4.20;;;;;;;30.05;43.28;99270.55;1592426;89;21096;-74
2022/08/18 12:22:53;;;;;;;8.73;4.67;;;;;;;30.08;43.72;99276.69;1606275;89;21070;-77
2022/08/18 12:25:21;;;;;;;6.45;4.75;;;;;;;30.20;43.38;99274.17;1537733;89;21632;-80
2022/08/18 12:27:50;;;;;;;8.15;5.28;;;;;;;30.33;43.43;99278.17;1591859;87;21076;-78